sensor_id;sensor_type;location;lat;lon;timestamp;temperature;humidity
7077;DHT22;3579;48.956;9.154;2022-11-15T00:00:53;19.90;56.40
7077;DHT22;3579;48.956;9.154;2022-11-15T00:03:25;19.90;56.50
7077;DHT22;3579;48.956;9.154;2022-11-15T00:05:52;20.00;56.50
7077;DHT22;3579;48.956;9.154;2022-11-15T00:08:18;19.90;56.40
7077;DHT22;3579;48.956;9.154;2022-11-15T00:10:58;19.90;56.50
7077;DHT22;3579;48.956;9.154;2022-11-15T00:13:24;19.90;56.40
7077;DHT22;3579;48.956;9.154;2022-11-15T00:15:50;19.90;56.40
7077;DHT22;3579;48.956;9.154;2022-11-15T00:18:17;19.90;56.40
7077;DHT22;3579;48.956;9.154;2022-11-15T00:20:43;19.90;56.50
7077;DHT22;3579;48.956;9.154;2022-11-15T00:23:09;19.90;56.40
7077;DHT22;3579;48.956;9.154;2022-11-15T00:25:36;19.90;56.50
7077;DHT22;3579;48.956;9.154;2022-11-15T00:28:02;19.90;56.50
7077;DHT22;3579;48.956;9.154;2022-11-15T00:30:28;19.90;56.50
7077;DHT22;3579;48.956;9.154;2022-11-15T00:32:55;19.90;56.50
7077;DHT22;3579;48.956;9.154;2022-11-15T00:35:21;19.90;56.40
7077;DHT22;3579;48.956;9.154;2022-11-15T00:37:47;19.90;56.50
7077;DHT22;3579;48.956;9.154;2022-11-15T00:40:14;19.90;56.40
7077;DHT22;3579;48.956;9.154;2022-11-15T00:42:41;19.90;56.50
7077;DHT22;3579;48.956;9.154;2022-11-15T00:45:08;19.90;56.50
7077;DHT22;3579;48.956;9.154;2022-11-15T00:47:34;19.90;56.50
7077;DHT22;3579;48.956;9.154;2022-11-15T00:50:00;19.90;56.50
7077;DHT22;3579;48.956;9.154;2022-11-15T00:52:26;19.90;56.50
7077;DHT22;3579;48.956;9.154;2022-11-15T00:54:52;19.90;56.50
7077;DHT22;3579;48.956;9.154;2022-11-15T00:57:18;19.90;56.50
7077;DHT22;3579;48.956;9.154;2022-11-15T00:59:44;19.90;56.50
7077;DHT22;3579;48.956;9.154;2022-11-15T01:02:10;19.90;56.50
7077;DHT22;3579;48.956;9.154;2022-11-15T01:04:36;19.90;56.50
7077;DHT22;3579;48.956;9.154;2022-11-15T01:07:02;19.90;56.50
7077;DHT22;3579;48.956;9.154;2022-11-15T01:09:28;19.90;56.50
7077;DHT22;3579;48.956;9.154;2022-11-15T01:11:54;19.90;56.50
7077;DHT22;3579;48.956;9.154;2022-11-15T01:14:20;19.90;56.50
7077;DHT22;3579;48.956;9.154;2022-11-15T01:16:46;19.90;56.50
7077;DHT22;3579;48.956;9.154;2022-11-15T01:19:12;19.90;56.50
7077;DHT22;3579;48.956;9.154;2022-11-15T01:21:39;19.80;56.40
7077;DHT22;3579;48.956;9.154;2022-11-15T01:24:05;19.80;56.40
7077;DHT22;3579;48.956;9.154;2022-11-15T01:26:31;19.90;56.50
7077;DHT22;3579;48.956;9.154;2022-11-15T01:28:57;19.90;56.50
7077;DHT22;3579;48.956;9.154;2022-11-15T01:31:23;19.90;56.50
7077;DHT22;3579;48.956;9.154;2022-11-15T01:33:49;19.80;56.40
7077;DHT22;3579;48.956;9.154;2022-11-15T01:36:21;19.80;56.50
7077;DHT22;3579;48.956;9.154;2022-11-15T01:38:54;19.80;56.40
7077;DHT22;3579;48.956;9.154;2022-11-15T01:41:24;19.80;56.40
7077;DHT22;3579;48.956;9.154;2022-11-15T01:43:56;19.80;56.40
7077;DHT22;3579;48.956;9.154;2022-11-15T01:46:34;19.80;56.40
7077;DHT22;3579;48.956;9.154;2022-11-15T01:49:05;19.80;56.50
7077;DHT22;3579;48.956;9.154;2022-11-15T01:51:35;19.80;56.50
7077;DHT22;3579;48.956;9.154;2022-11-15T01:54:05;19.80;56.50
7077;DHT22;3579;48.956;9.154;2022-11-15T01:56:37;19.80;56.50
7077;DHT22;3579;48.956;9.154;2022-11-15T01:59:08;19.80;56.50
7077;DHT22;3579;48.956;9.154;2022-11-15T02:01:34;19.80;56.50
7077;DHT22;3579;48.956;9.154;2022-11-15T02:04:06;19.80;56.60
7077;DHT22;3579;48.956;9.154;2022-11-15T02:06:35;19.80;56.60
7077;DHT22;3579;48.956;9.154;2022-11-15T02:09:02;19.80;56.50
7077;DHT22;3579;48.956;9.154;2022-11-15T02:11:28;19.80;56.50
7077;DHT22;3579;48.956;9.154;2022-11-15T02:13:55;19.80;56.50
7077;DHT22;3579;48.956;9.154;2022-11-15T02:25:40;19.80;57.10
7077;DHT22;3579;48.956;9.154;2022-11-15T02:27:58;19.70;56.50
7077;DHT22;3579;48.956;9.154;2022-11-15T02:36:11;19.70;56.60
7077;DHT22;3579;48.956;9.154;2022-11-15T02:39:03;19.70;56.60
7077;DHT22;3579;48.956;9.154;2022-11-15T02:41:41;19.70;56.60
7077;DHT22;3579;48.956;9.154;2022-11-15T02:44:17;19.70;56.60
7077;DHT22;3579;48.956;9.154;2022-11-15T02:46:49;19.70;56.60
7077;DHT22;3579;48.956;9.154;2022-11-15T02:49:35;19.70;56.60
7077;DHT22;3579;48.956;9.154;2022-11-15T02:52:02;19.70;56.60
7077;DHT22;3579;48.956;9.154;2022-11-15T02:54:31;19.70;56.60
7077;DHT22;3579;48.956;9.154;2022-11-15T03:00:13;19.70;56.50
7077;DHT22;3579;48.956;9.154;2022-11-15T03:05:46;19.70;56.60
7077;DHT22;3579;48.956;9.154;2022-11-15T03:08:30;19.70;56.60
7077;DHT22;3579;48.956;9.154;2022-11-15T03:11:12;19.70;56.60
7077;DHT22;3579;48.956;9.154;2022-11-15T03:13:59;19.70;56.60
7077;DHT22;3579;48.956;9.154;2022-11-15T03:19:32;19.70;57.10
7077;DHT22;3579;48.956;9.154;2022-11-15T03:22:03;19.70;56.60
7077;DHT22;3579;48.956;9.154;2022-11-15T03:24:34;19.70;56.60
7077;DHT22;3579;48.956;9.154;2022-11-15T03:27:03;19.70;56.50
7077;DHT22;3579;48.956;9.154;2022-11-15T03:29:37;19.70;56.60
7077;DHT22;3579;48.956;9.154;2022-11-15T03:32:15;19.70;56.50
7077;DHT22;3579;48.956;9.154;2022-11-15T03:34:56;19.70;56.60
7077;DHT22;3579;48.956;9.154;2022-11-15T03:37:31;19.70;56.60
7077;DHT22;3579;48.956;9.154;2022-11-15T03:39:59;19.70;56.60
7077;DHT22;3579;48.956;9.154;2022-11-15T03:42:42;19.70;56.60
7077;DHT22;3579;48.956;9.154;2022-11-15T03:45:14;19.70;56.60
7077;DHT22;3579;48.956;9.154;2022-11-15T03:48:12;19.70;56.60
7077;DHT22;3579;48.956;9.154;2022-11-15T03:50:38;19.70;56.60
7077;DHT22;3579;48.956;9.154;2022-11-15T03:53:05;19.70;56.60
7077;DHT22;3579;48.956;9.154;2022-11-15T03:55:32;19.70;56.60
7077;DHT22;3579;48.956;9.154;2022-11-15T03:58:00;19.70;56.60
7077;DHT22;3579;48.956;9.154;2022-11-15T04:00:27;19.70;56.50
7077;DHT22;3579;48.956;9.154;2022-11-15T04:02:53;19.70;56.60
7077;DHT22;3579;48.956;9.154;2022-11-15T04:05:20;19.60;56.50
7077;DHT22;3579;48.956;9.154;2022-11-15T04:07:46;19.60;56.50
7077;DHT22;3579;48.956;9.154;2022-11-15T04:10:12;19.70;56.60
7077;DHT22;3579;48.956;9.154;2022-11-15T04:12:42;19.60;56.50
7077;DHT22;3579;48.956;9.154;2022-11-15T04:15:11;19.70;56.60
7077;DHT22;3579;48.956;9.154;2022-11-15T04:20:12;19.60;56.50
7077;DHT22;3579;48.956;9.154;2022-11-15T04:22:58;19.60;56.50
7077;DHT22;3579;48.956;9.154;2022-11-15T04:25:43;19.60;56.50
7077;DHT22;3579;48.956;9.154;2022-11-15T04:28:11;19.60;56.50
7077;DHT22;3579;48.956;9.154;2022-11-15T04:30:37;19.70;56.60
7077;DHT22;3579;48.956;9.154;2022-11-15T04:33:03;19.70;56.60
7077;DHT22;3579;48.956;9.154;2022-11-15T04:35:30;19.70;56.60
7077;DHT22;3579;48.956;9.154;2022-11-15T04:37:56;19.70;57.10
7077;DHT22;3579;48.956;9.154;2022-11-15T04:40:22;19.70;57.10
7077;DHT22;3579;48.956;9.154;2022-11-15T04:42:48;19.70;56.50
7077;DHT22;3579;48.956;9.154;2022-11-15T04:45:15;19.70;56.60
7077;DHT22;3579;48.956;9.154;2022-11-15T04:47:43;19.70;56.50
7077;DHT22;3579;48.956;9.154;2022-11-15T04:50:11;19.70;56.50
7077;DHT22;3579;48.956;9.154;2022-11-15T04:52:43;19.70;56.60
7077;DHT22;3579;48.956;9.154;2022-11-15T04:55:10;19.70;56.60
7077;DHT22;3579;48.956;9.154;2022-11-15T04:57:37;19.60;56.50
7077;DHT22;3579;48.956;9.154;2022-11-15T05:00:05;19.60;56.50
7077;DHT22;3579;48.956;9.154;2022-11-15T05:02:32;19.60;56.50
7077;DHT22;3579;48.956;9.154;2022-11-15T05:05:17;19.60;56.50
7077;DHT22;3579;48.956;9.154;2022-11-15T05:07:43;19.70;56.60
7077;DHT22;3579;48.956;9.154;2022-11-15T05:10:09;19.60;56.50
7077;DHT22;3579;48.956;9.154;2022-11-15T05:12:35;19.70;56.60
7077;DHT22;3579;48.956;9.154;2022-11-15T05:15:02;19.70;56.60
7077;DHT22;3579;48.956;9.154;2022-11-15T05:17:28;19.60;56.50
7077;DHT22;3579;48.956;9.154;2022-11-15T05:19:54;19.70;56.50
7077;DHT22;3579;48.956;9.154;2022-11-15T05:22:21;19.60;56.40
7077;DHT22;3579;48.956;9.154;2022-11-15T05:24:47;19.70;56.50
7077;DHT22;3579;48.956;9.154;2022-11-15T05:27:13;19.70;56.60
7077;DHT22;3579;48.956;9.154;2022-11-15T05:29:39;19.70;56.60
7077;DHT22;3579;48.956;9.154;2022-11-15T05:32:07;19.70;56.50
7077;DHT22;3579;48.956;9.154;2022-11-15T05:34:34;19.60;56.40
7077;DHT22;3579;48.956;9.154;2022-11-15T05:37:00;19.60;56.50
7077;DHT22;3579;48.956;9.154;2022-11-15T05:39:27;19.60;56.40
7077;DHT22;3579;48.956;9.154;2022-11-15T05:42:06;19.60;56.40
7077;DHT22;3579;48.956;9.154;2022-11-15T05:44:34;19.60;56.40
7077;DHT22;3579;48.956;9.154;2022-11-15T05:47:02;19.60;56.50
7077;DHT22;3579;48.956;9.154;2022-11-15T05:49:31;19.60;56.50
7077;DHT22;3579;48.956;9.154;2022-11-15T05:52:03;19.60;56.50
7077;DHT22;3579;48.956;9.154;2022-11-15T05:54:31;19.60;56.40
7077;DHT22;3579;48.956;9.154;2022-11-15T05:56:57;19.60;56.40
7077;DHT22;3579;48.956;9.154;2022-11-15T05:59:24;19.60;57.00
7077;DHT22;3579;48.956;9.154;2022-11-15T06:01:50;19.60;56.50
7077;DHT22;3579;48.956;9.154;2022-11-15T06:04:16;19.60;56.40
7077;DHT22;3579;48.956;9.154;2022-11-15T06:06:42;19.60;56.40
7077;DHT22;3579;48.956;9.154;2022-11-15T06:09:08;19.60;56.40
7077;DHT22;3579;48.956;9.154;2022-11-15T06:11:34;19.60;56.40
7077;DHT22;3579;48.956;9.154;2022-11-15T06:14:00;19.60;56.40
7077;DHT22;3579;48.956;9.154;2022-11-15T06:16:27;19.60;56.40
7077;DHT22;3579;48.956;9.154;2022-11-15T06:18:53;19.60;56.40
7077;DHT22;3579;48.956;9.154;2022-11-15T06:21:19;19.60;56.40
7077;DHT22;3579;48.956;9.154;2022-11-15T06:23:45;19.60;56.40
7077;DHT22;3579;48.956;9.154;2022-11-15T06:26:11;19.60;56.40
7077;DHT22;3579;48.956;9.154;2022-11-15T06:28:37;19.60;56.40
7077;DHT22;3579;48.956;9.154;2022-11-15T06:31:05;19.60;56.40
7077;DHT22;3579;48.956;9.154;2022-11-15T06:33:32;19.60;56.40
7077;DHT22;3579;48.956;9.154;2022-11-15T06:36:03;19.60;56.40
7077;DHT22;3579;48.956;9.154;2022-11-15T06:38:29;19.60;56.50
7077;DHT22;3579;48.956;9.154;2022-11-15T06:41:01;19.60;56.50
7077;DHT22;3579;48.956;9.154;2022-11-15T06:43:28;19.60;56.50
7077;DHT22;3579;48.956;9.154;2022-11-15T06:45:54;19.60;57.00
7077;DHT22;3579;48.956;9.154;2022-11-15T06:48:20;19.60;56.40
7077;DHT22;3579;48.956;9.154;2022-11-15T06:50:56;19.60;56.50
7077;DHT22;3579;48.956;9.154;2022-11-15T06:53:23;19.60;56.40
7077;DHT22;3579;48.956;9.154;2022-11-15T06:55:49;19.60;56.50
7077;DHT22;3579;48.956;9.154;2022-11-15T06:58:16;19.60;56.50
7077;DHT22;3579;48.956;9.154;2022-11-15T07:00:42;19.60;56.40
7077;DHT22;3579;48.956;9.154;2022-11-15T07:03:08;19.60;56.40
7077;DHT22;3579;48.956;9.154;2022-11-15T07:05:35;19.60;56.40
7077;DHT22;3579;48.956;9.154;2022-11-15T07:08:02;19.60;56.50
7077;DHT22;3579;48.956;9.154;2022-11-15T07:10:28;19.70;56.50
7077;DHT22;3579;48.956;9.154;2022-11-15T07:12:55;19.70;56.50
7077;DHT22;3579;48.956;9.154;2022-11-15T07:15:24;19.70;56.50
7077;DHT22;3579;48.956;9.154;2022-11-15T07:17:51;19.70;57.00
7077;DHT22;3579;48.956;9.154;2022-11-15T07:20:18;19.70;56.40
7077;DHT22;3579;48.956;9.154;2022-11-15T07:22:44;19.80;56.50
7077;DHT22;3579;48.956;9.154;2022-11-15T07:25:11;19.70;56.40
7077;DHT22;3579;48.956;9.154;2022-11-15T07:27:38;19.80;56.50
7077;DHT22;3579;48.956;9.154;2022-11-15T07:30:05;19.80;56.50
7077;DHT22;3579;48.956;9.154;2022-11-15T07:32:31;19.80;56.40
7077;DHT22;3579;48.956;9.154;2022-11-15T07:34:57;19.80;56.40
7077;DHT22;3579;48.956;9.154;2022-11-15T07:37:23;19.80;56.40
7077;DHT22;3579;48.956;9.154;2022-11-15T07:39:49;19.80;56.40
7077;DHT22;3579;48.956;9.154;2022-11-15T07:42:15;19.90;56.40
7077;DHT22;3579;48.956;9.154;2022-11-15T07:45:00;19.90;56.40
7077;DHT22;3579;48.956;9.154;2022-11-15T07:47:28;19.90;56.40
7077;DHT22;3579;48.956;9.154;2022-11-15T07:49:55;20.00;56.40
7077;DHT22;3579;48.956;9.154;2022-11-15T07:52:21;20.00;56.40
7077;DHT22;3579;48.956;9.154;2022-11-15T07:54:47;20.00;56.30
7077;DHT22;3579;48.956;9.154;2022-11-15T07:57:13;20.10;56.40
7077;DHT22;3579;48.956;9.154;2022-11-15T07:59:39;20.10;56.30
7077;DHT22;3579;48.956;9.154;2022-11-15T08:02:05;20.20;56.30
7077;DHT22;3579;48.956;9.154;2022-11-15T08:04:31;20.20;56.20
7077;DHT22;3579;48.956;9.154;2022-11-15T08:06:58;20.30;56.10
7077;DHT22;3579;48.956;9.154;2022-11-15T08:09:24;20.20;56.00
7077;DHT22;3579;48.956;9.154;2022-11-15T08:11:51;20.30;56.10
7077;DHT22;3579;48.956;9.154;2022-11-15T08:14:17;20.30;56.10
7077;DHT22;3579;48.956;9.154;2022-11-15T08:16:43;20.30;56.10
7077;DHT22;3579;48.956;9.154;2022-11-15T08:19:09;20.30;56.10
7077;DHT22;3579;48.956;9.154;2022-11-15T08:21:35;20.30;56.10
7077;DHT22;3579;48.956;9.154;2022-11-15T08:24:03;20.30;56.10
7077;DHT22;3579;48.956;9.154;2022-11-15T08:26:29;20.30;56.10
7077;DHT22;3579;48.956;9.154;2022-11-15T08:28:55;20.30;56.00
7077;DHT22;3579;48.956;9.154;2022-11-15T08:31:22;20.30;56.00
7077;DHT22;3579;48.956;9.154;2022-11-15T08:33:48;20.40;56.00
7077;DHT22;3579;48.956;9.154;2022-11-15T08:36:16;20.40;56.00
7077;DHT22;3579;48.956;9.154;2022-11-15T08:38:42;20.40;55.90
7077;DHT22;3579;48.956;9.154;2022-11-15T08:41:32;20.40;55.90
7077;DHT22;3579;48.956;9.154;2022-11-15T08:43:59;20.50;55.90
7077;DHT22;3579;48.956;9.154;2022-11-15T08:46:25;20.50;55.90
7077;DHT22;3579;48.956;9.154;2022-11-15T08:48:51;20.50;55.80
7077;DHT22;3579;48.956;9.154;2022-11-15T08:51:17;20.60;55.90
7077;DHT22;3579;48.956;9.154;2022-11-15T08:53:44;20.60;55.90
7077;DHT22;3579;48.956;9.154;2022-11-15T08:56:14;20.60;55.90
7077;DHT22;3579;48.956;9.154;2022-11-15T08:58:40;20.60;55.90
7077;DHT22;3579;48.956;9.154;2022-11-15T09:01:16;20.60;56.40
7077;DHT22;3579;48.956;9.154;2022-11-15T09:03:43;20.70;55.90
7077;DHT22;3579;48.956;9.154;2022-11-15T09:06:09;20.70;55.90
7077;DHT22;3579;48.956;9.154;2022-11-15T09:08:36;20.70;55.80
7077;DHT22;3579;48.956;9.154;2022-11-15T09:11:06;20.70;55.80
7077;DHT22;3579;48.956;9.154;2022-11-15T09:13:33;20.80;55.90
7077;DHT22;3579;48.956;9.154;2022-11-15T09:16:00;20.80;55.80
7077;DHT22;3579;48.956;9.154;2022-11-15T09:18:27;20.80;55.80
7077;DHT22;3579;48.956;9.154;2022-11-15T09:20:57;20.80;55.70
7077;DHT22;3579;48.956;9.154;2022-11-15T09:23:25;20.90;55.80
7077;DHT22;3579;48.956;9.154;2022-11-15T09:25:52;20.90;55.70
7077;DHT22;3579;48.956;9.154;2022-11-15T09:28:18;20.90;55.70
7077;DHT22;3579;48.956;9.154;2022-11-15T09:30:44;20.90;55.60
7077;DHT22;3579;48.956;9.154;2022-11-15T09:33:12;20.90;55.60
7077;DHT22;3579;48.956;9.154;2022-11-15T09:35:38;21.00;55.70
7077;DHT22;3579;48.956;9.154;2022-11-15T09:38:05;21.00;55.60
7077;DHT22;3579;48.956;9.154;2022-11-15T09:40:32;21.00;55.70
7077;DHT22;3579;48.956;9.154;2022-11-15T09:43:31;21.00;55.60
7077;DHT22;3579;48.956;9.154;2022-11-15T09:48:55;21.10;55.60
7077;DHT22;3579;48.956;9.154;2022-11-15T09:51:38;21.20;55.60
7077;DHT22;3579;48.956;9.154;2022-11-15T09:56:44;21.20;55.50
7077;DHT22;3579;48.956;9.154;2022-11-15T10:04:49;21.30;55.60
7077;DHT22;3579;48.956;9.154;2022-11-15T10:07:27;21.30;55.60
7077;DHT22;3579;48.956;9.154;2022-11-15T10:12:47;21.40;55.60
7077;DHT22;3579;48.956;9.154;2022-11-15T10:15:16;21.40;55.60
7077;DHT22;3579;48.956;9.154;2022-11-15T10:23:44;21.40;55.40
7077;DHT22;3579;48.956;9.154;2022-11-15T10:26:15;21.50;55.50
7077;DHT22;3579;48.956;9.154;2022-11-15T10:28:42;21.50;55.50
7077;DHT22;3579;48.956;9.154;2022-11-15T10:31:23;21.50;55.40
7077;DHT22;3579;48.956;9.154;2022-11-15T10:33:49;21.50;55.40
7077;DHT22;3579;48.956;9.154;2022-11-15T10:36:19;21.50;55.50
7077;DHT22;3579;48.956;9.154;2022-11-15T10:41:20;21.60;55.40
7077;DHT22;3579;48.956;9.154;2022-11-15T10:46:33;21.60;55.40
7077;DHT22;3579;48.956;9.154;2022-11-15T10:49:13;21.60;55.40
7077;DHT22;3579;48.956;9.154;2022-11-15T10:51:54;21.60;55.40
7077;DHT22;3579;48.956;9.154;2022-11-15T10:54:55;21.60;55.30
7077;DHT22;3579;48.956;9.154;2022-11-15T10:57:47;21.60;55.40
7077;DHT22;3579;48.956;9.154;2022-11-15T11:00:36;21.60;55.40
7077;DHT22;3579;48.956;9.154;2022-11-15T11:03:34;21.70;55.40
7077;DHT22;3579;48.956;9.154;2022-11-15T11:06:26;21.70;55.50
7077;DHT22;3579;48.956;9.154;2022-11-15T11:09:09;21.70;56.00
7077;DHT22;3579;48.956;9.154;2022-11-15T11:12:01;21.70;55.40
7077;DHT22;3579;48.956;9.154;2022-11-15T11:14:34;21.70;55.40
7077;DHT22;3579;48.956;9.154;2022-11-15T11:20:23;21.70;55.40
7077;DHT22;3579;48.956;9.154;2022-11-15T11:39:38;21.80;55.40
7077;DHT22;3579;48.956;9.154;2022-11-15T11:47:47;21.80;55.40
7077;DHT22;3579;48.956;9.154;2022-11-15T11:50:23;21.80;55.40
7077;DHT22;3579;48.956;9.154;2022-11-15T11:53:01;21.90;55.40
7077;DHT22;3579;48.956;9.154;2022-11-15T11:55:34;21.90;55.50
7077;DHT22;3579;48.956;9.154;2022-11-15T11:58:35;21.90;55.40
7077;DHT22;3579;48.956;9.154;2022-11-15T12:01:34;22.00;55.50
7077;DHT22;3579;48.956;9.154;2022-11-15T12:06:54;21.90;55.40
7077;DHT22;3579;48.956;9.154;2022-11-15T12:14:51;22.00;55.40
7077;DHT22;3579;48.956;9.154;2022-11-15T12:17:26;22.00;55.50
7077;DHT22;3579;48.956;9.154;2022-11-15T12:20:03;22.00;55.40
7077;DHT22;3579;48.956;9.154;2022-11-15T12:23:11;22.10;55.50
7077;DHT22;3579;48.956;9.154;2022-11-15T12:28:49;22.10;55.40
7077;DHT22;3579;48.956;9.154;2022-11-15T12:36:44;22.10;55.40
7077;DHT22;3579;48.956;9.154;2022-11-15T12:39:11;22.20;55.40
7077;DHT22;3579;48.956;9.154;2022-11-15T12:47:23;22.20;55.40
7077;DHT22;3579;48.956;9.154;2022-11-15T12:49:50;22.20;55.40
7077;DHT22;3579;48.956;9.154;2022-11-15T12:52:16;22.20;55.40
7077;DHT22;3579;48.956;9.154;2022-11-15T13:02:40;22.20;55.30
7077;DHT22;3579;48.956;9.154;2022-11-15T13:13:07;22.20;55.30
7077;DHT22;3579;48.956;9.154;2022-11-15T13:18:28;22.30;55.40
7077;DHT22;3579;48.956;9.154;2022-11-15T13:20:55;22.30;55.40
7077;DHT22;3579;48.956;9.154;2022-11-15T13:23:22;22.30;55.40
7077;DHT22;3579;48.956;9.154;2022-11-15T13:26:08;22.30;55.30
7077;DHT22;3579;48.956;9.154;2022-11-15T13:28:46;22.30;55.30
7077;DHT22;3579;48.956;9.154;2022-11-15T13:31:36;22.30;55.30
7077;DHT22;3579;48.956;9.154;2022-11-15T13:36:51;22.40;55.40
7077;DHT22;3579;48.956;9.154;2022-11-15T13:39:32;22.40;55.30
7077;DHT22;3579;48.956;9.154;2022-11-15T13:41:59;22.40;55.30
7077;DHT22;3579;48.956;9.154;2022-11-15T13:44:28;22.40;55.40
7077;DHT22;3579;48.956;9.154;2022-11-15T13:47:05;22.40;55.40
7077;DHT22;3579;48.956;9.154;2022-11-15T13:49:34;22.40;55.40
7077;DHT22;3579;48.956;9.154;2022-11-15T13:52:02;22.40;55.40
7077;DHT22;3579;48.956;9.154;2022-11-15T13:54:44;22.40;55.40
7077;DHT22;3579;48.956;9.154;2022-11-15T13:57:16;22.40;55.30
7077;DHT22;3579;48.956;9.154;2022-11-15T13:59:48;22.40;55.30
7077;DHT22;3579;48.956;9.154;2022-11-15T14:02:19;22.40;55.30
7077;DHT22;3579;48.956;9.154;2022-11-15T14:04:54;22.40;55.30
7077;DHT22;3579;48.956;9.154;2022-11-15T14:07:23;22.50;55.40
7077;DHT22;3579;48.956;9.154;2022-11-15T14:09:50;22.40;55.30
7077;DHT22;3579;48.956;9.154;2022-11-15T14:12:34;22.40;55.30
7077;DHT22;3579;48.956;9.154;2022-11-15T14:17:52;22.50;55.40
7077;DHT22;3579;48.956;9.154;2022-11-15T14:20:28;22.40;55.30
7077;DHT22;3579;48.956;9.154;2022-11-15T14:23:02;22.50;55.40
7077;DHT22;3579;48.956;9.154;2022-11-15T14:25:30;22.50;55.90
7077;DHT22;3579;48.956;9.154;2022-11-15T14:30:39;22.50;55.40
7077;DHT22;3579;48.956;9.154;2022-11-15T14:35:51;22.50;55.40
7077;DHT22;3579;48.956;9.154;2022-11-15T14:38:18;22.50;55.40
7077;DHT22;3579;48.956;9.154;2022-11-15T14:40:48;22.50;55.40
7077;DHT22;3579;48.956;9.154;2022-11-15T14:43:15;22.50;55.40
7077;DHT22;3579;48.956;9.154;2022-11-15T14:45:42;22.50;55.30
7077;DHT22;3579;48.956;9.154;2022-11-15T14:48:09;22.50;55.40
7077;DHT22;3579;48.956;9.154;2022-11-15T14:50:35;22.50;55.40
7077;DHT22;3579;48.956;9.154;2022-11-15T14:53:02;22.50;55.90
7077;DHT22;3579;48.956;9.154;2022-11-15T14:55:30;22.50;55.40
7077;DHT22;3579;48.956;9.154;2022-11-15T14:57:58;22.50;55.40
7077;DHT22;3579;48.956;9.154;2022-11-15T15:00:25;22.50;55.30
7077;DHT22;3579;48.956;9.154;2022-11-15T15:02:53;22.50;55.40
7077;DHT22;3579;48.956;9.154;2022-11-15T15:07:51;22.50;55.30
7077;DHT22;3579;48.956;9.154;2022-11-15T15:10:19;22.50;55.30
7077;DHT22;3579;48.956;9.154;2022-11-15T15:12:45;22.50;55.30
7077;DHT22;3579;48.956;9.154;2022-11-15T15:15:14;22.50;55.30
7077;DHT22;3579;48.956;9.154;2022-11-15T15:17:41;22.50;55.40
7077;DHT22;3579;48.956;9.154;2022-11-15T15:20:08;22.50;55.40
7077;DHT22;3579;48.956;9.154;2022-11-15T15:22:38;22.50;55.30
7077;DHT22;3579;48.956;9.154;2022-11-15T15:25:33;22.50;55.30
7077;DHT22;3579;48.956;9.154;2022-11-15T15:28:04;22.50;55.40
7077;DHT22;3579;48.956;9.154;2022-11-15T15:30:32;22.50;55.40
7077;DHT22;3579;48.956;9.154;2022-11-15T15:32:58;22.50;55.40
7077;DHT22;3579;48.956;9.154;2022-11-15T15:35:29;22.50;55.30
7077;DHT22;3579;48.956;9.154;2022-11-15T15:37:56;22.50;55.30
7077;DHT22;3579;48.956;9.154;2022-11-15T15:40:23;22.50;55.30
7077;DHT22;3579;48.956;9.154;2022-11-15T15:42:50;22.50;55.30
7077;DHT22;3579;48.956;9.154;2022-11-15T15:45:17;22.50;55.30
7077;DHT22;3579;48.956;9.154;2022-11-15T15:47:44;22.50;55.30
7077;DHT22;3579;48.956;9.154;2022-11-15T15:50:34;22.50;55.40
7077;DHT22;3579;48.956;9.154;2022-11-15T15:53:02;22.50;55.40
7077;DHT22;3579;48.956;9.154;2022-11-15T15:55:29;22.50;55.40
7077;DHT22;3579;48.956;9.154;2022-11-15T15:57:55;22.50;55.40
7077;DHT22;3579;48.956;9.154;2022-11-15T16:00:23;22.50;55.40
7077;DHT22;3579;48.956;9.154;2022-11-15T16:02:51;22.50;55.40
7077;DHT22;3579;48.956;9.154;2022-11-15T16:05:18;22.50;55.40
7077;DHT22;3579;48.956;9.154;2022-11-15T16:07:44;22.50;55.40
7077;DHT22;3579;48.956;9.154;2022-11-15T16:12:51;22.50;55.40
7077;DHT22;3579;48.956;9.154;2022-11-15T16:15:18;22.50;55.40
7077;DHT22;3579;48.956;9.154;2022-11-15T16:17:50;22.50;55.40
7077;DHT22;3579;48.956;9.154;2022-11-15T16:22:55;22.50;55.30
7077;DHT22;3579;48.956;9.154;2022-11-15T16:25:27;22.50;55.40
7077;DHT22;3579;48.956;9.154;2022-11-15T16:27:53;22.50;55.40
7077;DHT22;3579;48.956;9.154;2022-11-15T16:30:21;22.40;55.30
7077;DHT22;3579;48.956;9.154;2022-11-15T16:32:47;22.50;55.30
7077;DHT22;3579;48.956;9.154;2022-11-15T16:35:15;22.50;55.40
7077;DHT22;3579;48.956;9.154;2022-11-15T16:37:42;22.50;55.40
7077;DHT22;3579;48.956;9.154;2022-11-15T16:40:28;22.50;55.40
7077;DHT22;3579;48.956;9.154;2022-11-15T16:42:56;22.40;55.30
7077;DHT22;3579;48.956;9.154;2022-11-15T16:45:23;22.40;55.30
7077;DHT22;3579;48.956;9.154;2022-11-15T16:47:49;22.40;55.30
7077;DHT22;3579;48.956;9.154;2022-11-15T16:50:23;22.40;55.30
7077;DHT22;3579;48.956;9.154;2022-11-15T16:52:53;22.40;55.40
7077;DHT22;3579;48.956;9.154;2022-11-15T16:55:21;22.40;55.30
7077;DHT22;3579;48.956;9.154;2022-11-15T16:57:48;22.40;55.40
7077;DHT22;3579;48.956;9.154;2022-11-15T17:00:16;22.40;55.30
7077;DHT22;3579;48.956;9.154;2022-11-15T17:02:43;22.40;55.40
7077;DHT22;3579;48.956;9.154;2022-11-15T17:05:10;22.40;55.40
7077;DHT22;3579;48.956;9.154;2022-11-15T17:07:37;22.40;55.40
7077;DHT22;3579;48.956;9.154;2022-11-15T17:10:04;22.40;55.40
7077;DHT22;3579;48.956;9.154;2022-11-15T17:12:30;22.40;55.40
7077;DHT22;3579;48.956;9.154;2022-11-15T17:14:56;22.40;55.40
7077;DHT22;3579;48.956;9.154;2022-11-15T17:17:22;22.40;55.40
7077;DHT22;3579;48.956;9.154;2022-11-15T17:19:48;22.40;55.40
7077;DHT22;3579;48.956;9.154;2022-11-15T17:22:14;22.40;55.40
7077;DHT22;3579;48.956;9.154;2022-11-15T17:24:40;22.40;55.40
7077;DHT22;3579;48.956;9.154;2022-11-15T17:27:06;22.40;55.40
7077;DHT22;3579;48.956;9.154;2022-11-15T17:29:32;22.30;55.30
7077;DHT22;3579;48.956;9.154;2022-11-15T17:31:58;22.40;55.40
7077;DHT22;3579;48.956;9.154;2022-11-15T17:34:24;22.30;55.30
7077;DHT22;3579;48.956;9.154;2022-11-15T17:36:50;22.40;55.40
7077;DHT22;3579;48.956;9.154;2022-11-15T17:39:16;22.30;55.30
7077;DHT22;3579;48.956;9.154;2022-11-15T17:41:44;22.30;55.30
7077;DHT22;3579;48.956;9.154;2022-11-15T17:44:10;22.30;55.30
7077;DHT22;3579;48.956;9.154;2022-11-15T17:46:36;22.30;55.30
7077;DHT22;3579;48.956;9.154;2022-11-15T17:49:02;22.30;55.30
7077;DHT22;3579;48.956;9.154;2022-11-15T17:51:28;22.30;55.40
7077;DHT22;3579;48.956;9.154;2022-11-15T17:53:54;22.20;55.30
7077;DHT22;3579;48.956;9.154;2022-11-15T17:56:22;22.20;55.30
7077;DHT22;3579;48.956;9.154;2022-11-15T17:58:50;22.20;55.30
7077;DHT22;3579;48.956;9.154;2022-11-15T18:01:20;22.20;55.40
7077;DHT22;3579;48.956;9.154;2022-11-15T18:03:46;22.20;55.40
7077;DHT22;3579;48.956;9.154;2022-11-15T18:06:14;22.20;55.40
7077;DHT22;3579;48.956;9.154;2022-11-15T18:08:42;22.20;55.40
7077;DHT22;3579;48.956;9.154;2022-11-15T18:11:14;22.20;55.40
7077;DHT22;3579;48.956;9.154;2022-11-15T18:13:42;22.20;55.40
7077;DHT22;3579;48.956;9.154;2022-11-15T18:16:12;22.10;55.40
7077;DHT22;3579;48.956;9.154;2022-11-15T18:18:39;22.10;55.40
7077;DHT22;3579;48.956;9.154;2022-11-15T18:23:44;22.10;55.50
7077;DHT22;3579;48.956;9.154;2022-11-15T18:26:13;22.10;55.50
7077;DHT22;3579;48.956;9.154;2022-11-15T18:28:41;22.10;55.60
7077;DHT22;3579;48.956;9.154;2022-11-15T18:31:28;22.10;55.60
7077;DHT22;3579;48.956;9.154;2022-11-15T18:33:56;22.00;55.50
7077;DHT22;3579;48.956;9.154;2022-11-15T18:36:25;22.10;55.70
7077;DHT22;3579;48.956;9.154;2022-11-15T18:38:59;22.00;55.60